createdAt,value
2022-08-17T00:03:43.681Z,24.4
2022-08-17T00:35:07.530Z,23.8
2022-08-17T00:58:12.158Z,23.5
2022-08-17T01:29:24.738Z,23.1
2022-08-17T01:52:29.402Z,22.8
2022-08-17T02:15:56.743Z,22.5
2022-08-17T02:54:21.025Z,22
2022-08-17T03:17:37.422Z,21.6
2022-08-17T03:41:05.141Z,21.2
2022-08-17T03:56:47.370Z,20.9
2022-08-17T04:27:26.592Z,20.5
2022-08-17T04:43:08.838Z,20.3
2022-08-17T05:29:30.333Z,19.8
2022-08-17T05:52:58.018Z,19.6
2022-08-17T06:24:10.999Z,19.7
2022-08-17T06:47:04.469Z,19.9
2022-08-17T07:33:47.644Z,20.6
2022-08-17T08:04:37.557Z,21
2022-08-17T08:28:16.101Z,21.2
2022-08-17T09:06:51.216Z,21.6
2022-08-17T09:30:18.332Z,21.8
2022-08-17T09:45:48.808Z,22
2022-08-17T10:16:26.931Z,22.5
2022-08-17T10:40:05.096Z,22.9
2022-08-17T11:02:57.941Z,23.3
2022-08-17T11:49:28.513Z,24.3
2022-08-17T12:12:43.628Z,24.9
2022-08-17T12:36:21.298Z,25.5
2022-08-17T12:59:24.996Z,26.1
2022-08-17T13:14:54.896Z,26.5
2022-08-17T13:38:09.636Z,27.2
2022-08-17T14:01:35.654Z,27.8
2022-08-17T14:32:12.451Z,28.6
2022-08-17T15:11:18.294Z,30.6
2022-08-17T15:26:36.469Z,31
2022-08-17T15:57:36.274Z,30.8
2022-08-17T16:28:25.635Z,29.6
2022-08-17T16:52:04.225Z,28.3
2022-08-17T17:07:35.335Z,27
2022-08-17T17:38:26.252Z,24.6
2022-08-17T17:53:57.309Z,23.8
2022-08-17T18:32:33.564Z,22.1
2022-08-17T19:11:21.152Z,21
2022-08-17T19:27:14.816Z,20.6
2022-08-17T19:57:54.319Z,19.9
2022-08-17T20:21:33.495Z,19.6
2022-08-17T20:36:53.260Z,19.3
2022-08-17T21:15:52.244Z,18.8
2022-08-17T21:31:12.016Z,18.7
2022-08-17T22:02:14.230Z,18.3
2022-08-17T22:41:02.050Z,18
2022-08-17T23:11:53.068Z,17.7
2022-08-17T23:43:18.041Z,17.4
2022-08-17T23:58:49.210Z,17.4
